M I D A S
Marine Information and Data Acquisition System
Tripno 359 of the Zeeleeuw from 2002-11-18 08:06:18 to 2002-11-18 15:35:00
Back to CruiseResearch ActivitiesStationsMapUnderway DataData graphs

EquipmentUnitsComment
TimeDGPSUTC
LatitudeDGPSDM.mWGS84
LongitudeDGPSDM.mWGS84
HeadingGyrodeg 
SOGDGPSknotsSpeed over ground
COGDGPSdegCourse over ground
DepthEcho soundermeters200 kHz
Missing or incorrect values are displayed as -999
Navigation data collected by the RV Zeeleeuw from 2002-11-18 08:06:18 to 2002-11-18 15:35:00
Time Latitude Longitude Heading SOG COG Depth
2002-11-18 08:07:23 51°14.866 2°54.295 339.3 12.2 330.5 9.4
2002-11-18 08:08:22 51°15.038 2°54.14 339.7 12.1 330.3 9
2002-11-18 08:09:21 51°15.21 2°53.983 340.2 12.1 330.7 9.5
2002-11-18 08:10:22 51°15.389 2°53.821 340 12.2 330.5 10.2
2002-11-18 08:11:22 51°15.564 2°53.657 339.5 12.2 329.4 11
2002-11-18 08:12:23 51°15.743 2°53.491 339.5 12.2 329.5 11.7
2002-11-18 08:13:23 51°15.918 2°53.329 339.3 12.1 329.4 12.1
2002-11-18 08:14:22 51°16.089 2°53.17 340 12.2 330 12.5
2002-11-18 08:15:22 51°16.265 2°53.009 340 12.2 330.6 12.7
2002-11-18 08:16:22 51°16.442 2°52.849 339.8 12.6 330.6 12.5
2002-11-18 08:17:23 51°16.632 2°52.688 343.5 12.9 334.2 11.5
2002-11-18 08:18:22 51°16.82 2°52.552 344.7 12.7 335.2 10.1
2002-11-18 08:19:22 51°17.011 2°52.422 347.2 12.4 337.6 10
2002-11-18 08:20:22 51°17.205 2°52.299 350.5 12.6 340.6 10.6
2002-11-18 08:21:22 51°17.401 2°52.186 350.2 12.4 340.6 10.8
2002-11-18 08:22:23 51°17.6 2°52.071 350.2 12.5 340.2 10.9
2002-11-18 08:23:22 51°17.79 2°51.949 346 12.6 335.5 10.7
2002-11-18 08:24:21 51°17.977 2°51.81 346.2 12.6 335.2 10.9
2002-11-18 08:25:22 51°18.171 2°51.664 346 12.6 334.9 11.6
2002-11-18 08:26:22 51°18.362 2°51.516 346.2 12.8 334.4 12.8
2002-11-18 08:27:22 51°18.553 2°51.368 345.8 12.7 333.7 14.1
2002-11-18 08:28:23 51°18.745 2°51.214 345.7 12.8 332.9 14.8
2002-11-18 08:29:22 51°18.932 2°51.062 346.2 12.8 333.2 15.3
2002-11-18 08:30:21 51°19.119 2°50.911 346.3 12.8 334 15.3
2002-11-18 08:31:22 51°19.314 2°50.755 346 12.9 333.5 14.6
2002-11-18 08:32:21 51°19.502 2°50.606 345.8 12.8 333.8 12.8
2002-11-18 08:33:22 51°19.696 2°50.457 346.2 12.7 335.3 13.1
2002-11-18 08:34:23 51°19.896 2°50.308 345.7 13.3 334.8 14.6
2002-11-18 08:35:21 51°20.091 2°50.162 345.7 13.4 334.7 16.6
2002-11-18 08:36:22 51°20.294 2°50 344.5 13.4 333 19.6
2002-11-18 08:37:23 51°20.489 2°49.808 337.5 13.6 326.4 22.6
2002-11-18 08:38:23 51°20.662 2°49.572 327.2 13.8 316.3 23.5
2002-11-18 08:39:23 51°20.827 2°49.311 325.5 14 314.4 23.4
2002-11-18 08:40:23 51°20.997 2°49.061 332 13.8 320.2 22.3
2002-11-18 08:41:23 51°21.191 2°48.879 348.3 13.5 335.5 21.3
2002-11-18 08:42:21 51°21.398 2°48.822 1.7 13.1 352.3 22.4
2002-11-18 08:43:22 51°21.617 2°48.775 0.3 13.1 351.6 23.7
2002-11-18 08:44:24 51°21.84 2°48.724 0.3 13.1 351.6 24
2002-11-18 08:45:24 51°22.056 2°48.676   13.2 352.2 -999
2002-11-18 08:46:23 51°22.269 2°48.63 0.5 13 351.3 23.6
2002-11-18 08:47:22 51°22.48 2°48.578 0.3 13 351.2 17.5
2002-11-18 08:48:21 51°22.689 2°48.556 3.8 12.8 356.1 18.7
2002-11-18 08:49:21 51°22.903 2°48.531 4.2 12.9 355.9 19.8
2002-11-18 08:50:21 51°23.116 2°48.505 4.2 12.9 355.7 21.5
2002-11-18 08:51:21 51°23.331 2°48.488 6.2 12.9 357.6 22.6
2002-11-18 08:52:21 51°23.545 2°48.476 5.8 12.9 358.2 22.5
2002-11-18 08:53:21 51°23.759 2°48.473 7.5 12.9 359.9 20.8
2002-11-18 08:54:21 51°23.975 2°48.473 8.2 13 0.3 22.8
2002-11-18 08:55:21 51°24.191 2°48.474 8.7 13 0.9 23.2
2002-11-18 08:56:21 51°24.409 2°48.477 8.3 13.1 0.5 23.4
2002-11-18 08:57:23 51°24.633 2°48.481 8.2 13 1.1 -999
2002-11-18 08:58:23 51°24.851 2°48.482 8.2 13 0.3 -999
2002-11-18 08:59:23 51°25.068 2°48.486 8 13 0.9 -999
2002-11-18 09:00:23 51°25.286 2°48.488 8.2 13.1 0.8 -999
2002-11-18 09:01:23 51°25.504 2°48.493 7.8 13.1 0.9 -999
2002-11-18 09:02:23 51°25.687 2°48.5 7.3 9.1 0.9 -999
2002-11-18 09:03:23 51°25.813 2°48.555 30.2 7.6 25.2 -999
2002-11-18 09:04:23 51°25.928 2°48.626 22.5 7.4 17.7 -999
2002-11-18 09:05:24 51°26.02 2°48.651 357.3 4 353 -999
2002-11-18 09:06:23 51°26.061 2°48.618 334.2 2.2 321.2 -999
2002-11-18 09:07:23 51°26.08 2°48.581 319.2 1.6 298.6 -999
2002-11-18 09:08:23 51°26.086 2°48.545 302.7 1.3 273.3 -999
2002-11-18 09:09:21 51°26.084 2°48.515 291.3 1 253.8 23.5
2002-11-18 09:10:21 51°26.078 2°48.492 284.7 1 248.4 -999
2002-11-18 09:11:23 51°26.069 2°48.473 273.2 0.8 228.7 -999
2002-11-18 09:12:23 51°26.059 2°48.459 268.7 0.8 220.7 -999
2002-11-18 09:13:23 51°26.049 2°48.449 265.3 0.7 207.2 -999
2002-11-18 09:14:21 51°26.038 2°48.445 261.2 0.6 188.3 22.8
2002-11-18 09:15:23 51°26.028 2°48.444 253 0.6 182.4 -999
2002-11-18 09:16:23 51°26.017 2°48.448 241.8 0.6 165.9 -999
2002-11-18 09:17:24 51°26.007 2°48.453 231.7 0.5 149.8 -999
2002-11-18 09:18:23 51°26.003 2°48.465 219.5 0.4 127.2 -999
2002-11-18 09:19:24 51°25.997 2°48.471 202 0.6 160.7 -999
2002-11-18 09:20:23 51°25.986 2°48.473 182 0.8 173.2 -999
2002-11-18 09:21:23 51°25.967 2°48.482 150.7 1.8 154.9 -999
2002-11-18 09:22:24 51°25.945 2°48.51 121.8 1.6 134.2 -999
2002-11-18 09:23:24 51°25.932 2°48.542 96.8 1.3 113 -999
2002-11-18 09:24:23 51°25.927 2°48.571 80.2 1.1 97.3 -999
2002-11-18 09:25:24 51°25.927 2°48.598 58.2 1 81 -999
2002-11-18 09:26:23 51°25.935 2°48.621 29.2 1.5 39.2 -999
2002-11-18 09:27:24 51°25.969 2°48.615 333.8 2.5 332.9 -999
2002-11-18 09:28:23 51°25.996 2°48.587 330.7 1.8 325.6 -999
2002-11-18 09:29:24 51°26.016 2°48.567 328.5 1.3 325.1 -999
2002-11-18 09:30:24 51°26.03 2°48.552 334.7 0.9 330.6 -999
2002-11-18 09:31:24 51°26.043 2°48.544 339.5 0.7 338.3 -999
2002-11-18 09:32:24 51°26.052 2°48.538 329.2 0.5 339.4 -999
2002-11-18 09:33:23 51°26.058 2°48.534 321.2 0.3 333 -999
2002-11-18 09:34:23 51°26.062 2°48.532 321.8 0.2 9.2 -999
2002-11-18 09:35:24 51°26.064 2°48.533 324.7 0.1 35.7 -999
2002-11-18 09:36:23 51°26.067 2°48.534 317.8 0.7 320.2 -999
2002-11-18 09:37:23 51°26.071 2°48.501 273.8 1.2 264.3 -999
2002-11-18 09:38:23 51°26.067 2°48.476 269.7 0.9 249.3 -999
2002-11-18 09:39:23 51°26.061 2°48.457 266.3 0.7 242.2 -999
2002-11-18 09:40:23 51°26.055 2°48.446 267.2 0.5 229.9 -999
2002-11-18 09:41:23 51°26.05 2°48.439 270.2 0.3 216 -999
2002-11-18 09:42:23 51°26.045 2°48.435 274.7 0.2 193.7 -999
2002-11-18 09:43:23 51°26.042 2°48.436 283.3 0.2 139.3 -999
2002-11-18 09:44:21 51°26.039 2°48.442 293.2 0.3 116.5 23.5
2002-11-18 09:45:21 51°26.037 2°48.451 304.8 0.4 109.4 23.6
2002-11-18 09:46:23 51°26.035 2°48.465 315.5 0.6 102.7 23.7
2002-11-18 09:47:24 51°26.031 2°48.481 327.7 0.7 108.4 23.7
2002-11-18 09:48:23 51°26.028 2°48.498 340.7 0.7 107.3 -999
2002-11-18 09:49:23 51°26.026 2°48.515 347 0.6 92 -999
2002-11-18 09:50:24 51°26.029 2°48.53 340.5 0.5 64 -999
2002-11-18 09:51:23 51°26.034 2°48.538 322.2 0.5 21.6 -999
2002-11-18 09:52:23 51°26.043 2°48.537 300 0.4 338.3 -999
2002-11-18 09:53:23 51°26.046 2°48.533 279.7 0.2 306.8 -999
2002-11-18 09:54:23 51°26.046 2°48.529 261.2 0.2 223.6 -999
2002-11-18 09:55:23 51°26.042 2°48.525 239.8 0.4 191.8 -999
2002-11-18 09:56:23 51°26.034 2°48.527 218.8 0.6 167.9 -999
2002-11-18 09:57:24 51°26.02 2°48.534 201.7 0.9 156.2 -999
2002-11-18 09:58:24 51°26.006 2°48.547 185.7 1.1 144.1 -999
2002-11-18 09:59:24 51°25.99 2°48.569 172.2 1.2 132.2 -999
2002-11-18 10:00:24 51°25.968 2°48.591 194.8 2.2 168.7 -999
2002-11-18 10:01:24 51°25.937 2°48.554 260.3 2.5 247.2 -999
2002-11-18 10:02:24 51°25.957 2°48.491 320.3 3.2 320.9 -999
2002-11-18 10:03:24 51°26.017 2°48.472 354.5 3.7 0.1 -999
2002-11-18 10:04:24 51°26.048 2°48.493 35.8 1.4 46.9 -999
2002-11-18 10:05:24 51°26.061 2°48.525 51.8 1.4 62.1 -999
2002-11-18 10:06:24 51°26.07 2°48.557 62 1.3 70.3 -999
2002-11-18 10:07:24 51°26.075 2°48.586 70.7 1.1 81 -999
2002-11-18 10:08:24 51°26.077 2°48.611 78.2 0.8 81.3 -999
2002-11-18 10:09:24 51°26.079 2°48.63 88.3 0.6 85.4 -999
2002-11-18 10:10:24 51°26.081 2°48.644 97.8 0.5 67.8 -999
2002-11-18 10:11:24 51°26.083 2°48.662 109.8 1.5 88.7 -999
2002-11-18 10:12:22 51°26.063 2°48.716 170.8 2.9 144.5 -999
2002-11-18 10:13:24 51°26.02 2°48.711 236.5 2.5 220.4 -999
2002-11-18 10:14:24 51°26.015 2°48.654 277.7 2 279.5 -999
2002-11-18 10:15:24 51°26.024 2°48.627 296.5 0.8 326.9 -999
2002-11-18 10:16:24 51°26.038 2°48.619 295 0.8 341.1 -999
2002-11-18 10:17:24 51°26.046 2°48.612 270.8 0.4 320.9 -999
2002-11-18 10:18:24 51°26.046 2°48.609 244.8 0.2 209.1 -999
2002-11-18 10:19:24 51°26.04 2°48.612 223.7 0.5 157.4 -999
2002-11-18 10:20:24 51°26.031 2°48.617 223.2 0.6 163.3 -999
2002-11-18 10:21:24 51°26.022 2°48.622 231.2 0.5 173 -999
2002-11-18 10:22:24 51°26.013 2°48.621 242.7 0.4 191.2 -999
2002-11-18 10:23:24 51°26.011 2°48.616 263.5 0.2 252 -999
2002-11-18 10:24:24 51°26.011 2°48.577 275.8 2.1 277.7 -999
2002-11-18 10:25:24 51°26.021 2°48.536 279.3 1.2 300.1 -999
2002-11-18 10:26:24 51°26.03 2°48.515 270.7 0.8 304.2 -999
2002-11-18 10:27:24 51°26.033 2°48.501 262.3 0.5 283.1 -999
2002-11-18 10:28:24 51°26.038 2°48.491 269.2 0.5 318.1 -999
2002-11-18 10:29:24 51°26.041 2°48.483 258 0.4 305.7 -999
2002-11-18 10:30:24 51°26.046 2°48.475 276 0.5 320.5 -999
2002-11-18 10:31:24 51°26.057 2°48.471 292.3 0.8 356.6 -999
2002-11-18 10:32:24 51°26.07 2°48.473 299 0.9 14.1 -999
2002-11-18 10:33:24 51°26.084 2°48.48 292.3 0.8 18.1 -999
2002-11-18 10:34:24 51°26.096 2°48.487 273.5 0.6 24.3 -999
2002-11-18 10:35:24 51°26.1 2°48.49 238.8 0.2 219.1 -999
2002-11-18 10:36:24 51°26.089 2°48.498 203 1 141 -999
2002-11-18 10:37:24 51°26.078 2°48.525 176.3 1.4 119.3 -999
2002-11-18 10:38:24 51°26.067 2°48.561 180 1.5 117.8 -999
2002-11-18 10:39:24 51°26.056 2°48.588 202.3 1 122.5 -999
2002-11-18 10:40:24 51°26.049 2°48.605 226.2 0.6 125.8 -999
2002-11-18 10:41:24 51°26.047 2°48.612 238.2 0.2 92.5 -999
2002-11-18 10:42:24 51°26.046 2°48.616 235.3 0.1 108 -999
2002-11-18 10:43:24 51°26.046 2°48.621 242.8 0.1 44.1 -999
2002-11-18 10:44:24 51°26.05 2°48.623 249.5 0.3 14.2 -999
2002-11-18 10:45:24 51°26.058 2°48.624 248.5 0.5 356.9 -999
2002-11-18 10:46:24 51°26.064 2°48.621 248.2 0.3 326.2 -999
2002-11-18 10:47:24 51°26.068 2°48.614 244.3 0.4 303.7 -999
2002-11-18 10:48:24 51°26.055 2°48.581 235.5 2.7 231.4 -999
2002-11-18 10:49:24 51°26.009 2°48.488 237.3 3.5 233.3 -999
2002-11-18 10:50:24 51°25.992 2°48.464 219 0.4 162 -999
2002-11-18 10:51:24 51°25.985 2°48.478 205.8 0.9 120.3 -999
2002-11-18 10:52:24 51°25.981 2°48.497 217.7 0.7 93 -999
2002-11-18 10:53:24 51°25.984 2°48.515 234.3 0.8 66.6 -999
2002-11-18 10:54:24 51°25.993 2°48.533 251.2 1 42.4 -999
2002-11-18 10:55:24 51°26.007 2°48.554 261.2 1.1 41.3 -999
2002-11-18 10:56:24 51°26.022 2°48.571 253 1 35.5 -999
2002-11-18 10:57:24 51°26.032 2°48.586 234.2 0.7 50.5 -999
2002-11-18 10:58:24 51°26.023 2°48.581 234.5 1.8 222.5 -999
2002-11-18 10:59:24 51°26.014 2°48.533 255.2 1.5 267.9 -999
2002-11-18 11:00:24 51°26.026 2°48.521 272.2 1 340.2 -999
2002-11-18 11:01:24 51°26.036 2°48.514 246.8 0.4 331.9 -999
2002-11-18 11:02:24 51°26.035 2°48.513 224.3 0.3 161.9 -999
2002-11-18 11:03:24 51°26.025 2°48.52 214.8 0.9 157.7 -999
2002-11-18 11:04:24 51°26.01 2°48.526 214.7 0.9 168.2 -999
2002-11-18 11:05:24 51°25.994 2°48.536 210.7 1.1 159.8 -999
2002-11-18 11:06:24 51°25.983 2°48.543 214.2 0.7 144.1 -999
2002-11-18 11:07:24 51°25.976 2°48.561 202.7 0.9 117.3 -999
2002-11-18 11:08:24 51°25.971 2°48.585 206.7 0.9 109.6 -999
2002-11-18 11:09:23 51°25.968 2°48.604 218.2 0.7 96.5 -999
2002-11-18 11:10:24 51°25.968 2°48.62 219 0.5 98.9 -999
2002-11-18 11:11:24 51°25.965 2°48.636 212 0.7 112 -999
2002-11-18 11:12:24 51°25.948 2°48.622 254.7 2 259.3 -999
2002-11-18 11:13:24 51°25.971 2°48.535 269.3 4.2 281.4 -999
2002-11-18 11:14:24 51°25.984 2°48.455 277.8 1.9 304.8 -999
2002-11-18 11:15:24 51°26.012 2°48.442 293 1.7 348.4 -999
2002-11-18 11:16:24 51°26.034 2°48.437 266.8 1 356.6 -999
2002-11-18 11:17:24 51°26.046 2°48.44 243.8 0.5 22 -999
2002-11-18 11:18:24 51°26.052 2°48.446 233 0.4 47.4 -999
2002-11-18 11:19:24 51°26.053 2°48.459 212.3 0.7 92.6 -999
2002-11-18 11:20:24 51°26.051 2°48.488 186.8 1.3 100.1 -999
2002-11-18 11:21:24 51°26.046 2°48.52 205.2 1.1 105.5 -999
2002-11-18 11:22:24 51°26.042 2°48.543 211 0.8 107 -999
2002-11-18 11:23:24 51°26.036 2°48.566 200.5 1 113.4 -999
2002-11-18 11:24:24 51°26.024 2°48.595 192.7 1.8 147.9 -999
2002-11-18 11:25:24 51°25.958 2°48.565 213.3 6.1 204 -999
2002-11-18 11:26:24 51°25.812 2°48.431 215 11.9 209.5 -999
2002-11-18 11:27:24 51°25.631 2°48.28 214 12.5 206.6 -999
2002-11-18 11:28:24 51°25.448 2°48.128 213.7 12.6 206.9 -999
2002-11-18 11:29:24 51°25.262 2°47.974 214.2 12.7 207.5 -999
2002-11-18 11:30:24 51°25.077 2°47.823 214.7 12.4 207.9 -999
2002-11-18 11:31:24 51°24.894 2°47.671 214.3 12.5 207.1 -999
2002-11-18 11:32:24 51°24.709 2°47.518 214.7 12.6 208.3 -999
2002-11-18 11:33:24 51°24.525 2°47.367 213.5 12.5 206.7 -999
2002-11-18 11:34:24 51°24.34 2°47.217 213.8 12.5 206.7 -999
2002-11-18 11:35:24 51°24.156 2°47.063 213.7 12.4 206.9 -999
2002-11-18 11:36:24 51°23.973 2°46.909 213.5 12.5 207.7 -999
2002-11-18 11:37:24 51°23.788 2°46.755 213.7 12.5 206.6 -999
2002-11-18 11:38:24 51°23.603 2°46.601 213.2 12.6 206.3 -999
2002-11-18 11:39:24 51°23.418 2°46.444 214 12.5 208.4 -999
2002-11-18 11:40:24 51°23.234 2°46.289 213.2 12.5 207.1 -999
2002-11-18 11:41:24 51°23.049 2°46.133 214.3 12.7 208.6 -999
2002-11-18 11:42:24 51°22.862 2°45.976 214.8 12.8 208.2 -999
2002-11-18 11:43:24 51°22.676 2°45.821 213.5 12.8 206.9 -999
2002-11-18 11:44:24 51°22.49 2°45.665 213.8 12.6 207.5 -999
2002-11-18 11:45:24 51°22.303 2°45.508 214.3 12.8 207.9 -999
2002-11-18 11:46:24 51°22.118 2°45.353 214.3 12.6 208.5 -999
2002-11-18 11:47:24 51°21.931 2°45.198 214.2 12.6 207.4 -999
2002-11-18 11:48:24 51°21.745 2°45.044 214 12.6 207.6 -999
2002-11-18 11:49:24 51°21.557 2°44.889 213.8 12.7 206.9 -999
2002-11-18 11:50:24 51°21.367 2°44.74 213 12.7 205.6 -999
2002-11-18 11:51:24 51°21.178 2°44.591 213.8 12.9 205.7 -999
2002-11-18 11:52:24 51°20.989 2°44.444 212.5 12.7 206.3 -999
2002-11-18 11:53:24 51°20.799 2°44.294 213.2 12.8 206.4 -999
2002-11-18 11:54:24 51°20.61 2°44.144 212.7 12.7 205.4 -999
2002-11-18 11:55:24 51°20.417 2°44.001 211.5 12.7 205 -999
2002-11-18 11:56:24 51°20.224 2°43.857 211.5 12.7 204.7 -999
2002-11-18 11:57:24 51°20.031 2°43.714 211.8 12.7 204.9 -999
2002-11-18 11:58:24 51°19.839 2°43.569 211 12.8 205.3 -999
2002-11-18 11:59:24 51°19.647 2°43.422 211 12.9 205 -999
2002-11-18 12:00:24 51°19.455 2°43.276 211 12.8 204.9 -999
2002-11-18 12:01:24 51°19.264 2°43.128 212 12.9 205.7 -999
2002-11-18 12:02:24 51°19.072 2°42.983 211.7 12.8 205.4 -999
2002-11-18 12:03:24 51°18.881 2°42.839 211.3 12.7 204.8 -999
2002-11-18 12:04:24 51°18.689 2°42.694 212.7 12.7 205.9 -999
2002-11-18 12:05:24 51°18.498 2°42.55 212.2 12.9 205 -999
2002-11-18 12:06:24 51°18.312 2°42.388 219.7 12.8 213.5 -999
2002-11-18 12:07:24 51°18.139 2°42.196 220.7 12.7 214.7 -999
2002-11-18 12:08:24 51°17.965 2°42.004 220.8 12.8 215.4 -999
2002-11-18 12:09:24 51°17.79 2°41.813 220 12.9 214.5 -999
2002-11-18 12:10:24 51°17.613 2°41.62 219.7 12.9 214.7 -999
2002-11-18 12:11:24 51°17.437 2°41.427 220 12.9 215 -999
2002-11-18 12:12:24 51°17.258 2°41.239 214.8 13.1 209.2 -999
2002-11-18 12:13:24 51°17.067 2°41.079 213.2 13 206.8 -999
2002-11-18 12:14:24 51°16.876 2°40.925 210.7 12.8 205 -999
2002-11-18 12:15:24 51°16.68 2°40.783 210.8 12.8 205.1 -999
2002-11-18 12:16:24 51°16.485 2°40.641 210.2 12.8 204.5 -999
2002-11-18 12:17:22 51°16.298 2°40.503 209.8 13 204 23.2
2002-11-18 12:18:22 51°16.1 2°40.371 208.8 13 202.8 22.7
2002-11-18 12:19:22 51°15.903 2°40.239 208.8 12.8 203.2 21.8
2002-11-18 12:20:22 51°15.706 2°40.106 208.5 12.8 202.6 21
2002-11-18 12:21:22 51°15.508 2°39.978 207.8 12.8 202 20
2002-11-18 12:22:22 51°15.312 2°39.843 209.2 12.8 203.2 19.3
2002-11-18 12:23:22 51°15.115 2°39.709 209.3 12.8 203 18.1
2002-11-18 12:24:22 51°14.918 2°39.58 208.2 12.8 202 17.1
2002-11-18 12:25:22 51°14.72 2°39.448 208.8 12.9 202.2 18.1
2002-11-18 12:26:22 51°14.522 2°39.317 208.5 12.8 202.4 17.4
2002-11-18 12:27:22 51°14.322 2°39.187 208.8 12.9 202.3 15.4
2002-11-18 12:28:22 51°14.122 2°39.054 209.8 13.3 203.3 14.5
2002-11-18 12:29:22 51°13.922 2°38.915 208.8 13.2 203.1 15.5
2002-11-18 12:30:22 51°13.718 2°38.775 210.3 13.4 204 16.5
2002-11-18 12:31:22 51°13.524 2°38.617 212.5 13.3 207 16.8
2002-11-18 12:32:22 51°13.328 2°38.461 212.5 13.2 206.5 16.6
2002-11-18 12:33:22 51°13.133 2°38.306 212.3 13 206.5 16.2
2002-11-18 12:34:22 51°12.939 2°38.15 211.3 13 206.4 15.7
2002-11-18 12:35:22 51°12.745 2°37.991 212 13.2 206.9 15.1
2002-11-18 12:36:22 51°12.551 2°37.833 212.2 13.2 207.1 14.9
2002-11-18 12:37:23 51°12.354 2°37.671 211.5 13.1 206.6 14.6
2002-11-18 12:38:22 51°12.161 2°37.517 211.2 13.2 206.6 14.6
2002-11-18 12:39:22 51°11.966 2°37.359 212.5 13.3 206.8 14.6
2002-11-18 12:40:22 51°11.771 2°37.201 212.2 13.1 207.4 14.9
2002-11-18 12:41:22 51°11.577 2°37.042 211.3 13.1 206.7 15.2
2002-11-18 12:42:22 51°11.384 2°36.88 212 13.1 208.1 14.9
2002-11-18 12:43:23 51°11.169 2°36.792 193.3 13.5 187.6 14.7
2002-11-18 12:44:22 51°10.953 2°36.751 193.2 13.2 187.1 14.3
2002-11-18 12:45:22 51°10.732 2°36.727 189.2 13.2 182.9 12.2
2002-11-18 12:46:22 51°10.514 2°36.726 186.3 12.9 179.5 10.8
2002-11-18 12:47:22 51°10.293 2°36.736 186.8 13.6 178.2 18.4
2002-11-18 12:48:22 51°10.083 2°36.755 184 12.1 175.5 20
2002-11-18 12:49:22 51°9.882 2°36.807 175.2 12.3 166.8 19.6
2002-11-18 12:50:23 51°9.678 2°36.889 174.3 12.5 165.7 18.5
2002-11-18 12:51:22 51°9.488 2°36.974 168.8 10.9 159.6 17.9
2002-11-18 12:52:22 51°9.352 2°37.024 187.3 7 175.9 15.8
2002-11-18 12:53:22 51°9.264 2°37.023 189.2 4.5 177.9 14.6
2002-11-18 12:54:23 51°9.204 2°37.054 165.7 3.6 152.3 13.7
2002-11-18 12:55:22 51°9.159 2°37.1 162.3 2.8 144.1 13
2002-11-18 12:56:22 51°9.141 2°37.134 163.2 0.9 102.8 12.7
2002-11-18 12:57:22 51°9.141 2°37.155 175.5 0.7 95.7 12.7
2002-11-18 12:58:22 51°9.142 2°37.169 190.3 0.5 89.3 12.7
2002-11-18 12:59:22 51°9.144 2°37.179 209.2 0.4 64.5 12.6
2002-11-18 13:00:23 51°9.15 2°37.186 227.7 0.3 38.7 12.6
2002-11-18 13:01:22 51°9.154 2°37.192 240 0.4 22.3 12.7
2002-11-18 13:02:22 51°9.16 2°37.195 241.8 0.4 18.1 12.7
2002-11-18 13:03:22 51°9.167 2°37.198 239 0.4 13.8 12.7
2002-11-18 13:04:23 51°9.171 2°37.2 230.2 0.2 5.8 12.8
2002-11-18 13:05:22 51°9.173 2°37.201 223.5 0.1 153.8 12.8
2002-11-18 13:06:22 51°9.172 2°37.2 218.2 0.2 196.3 12.7
2002-11-18 13:07:22 51°9.168 2°37.198 212.5 0.3 191.4 12.7
2002-11-18 13:08:22 51°9.162 2°37.198 209.3 0.5 181.9 12.5
2002-11-18 13:09:22 51°9.154 2°37.196 213 0.6 193 12.5
2002-11-18 13:10:22 51°9.146 2°37.19 220 0.5 214 12.5
2002-11-18 13:11:22 51°9.138 2°37.18 227 0.7 225.6 12.4
2002-11-18 13:12:22 51°9.132 2°37.167 233.7 0.6 239.7 12.3
2002-11-18 13:13:22 51°9.13 2°37.154 240.8 0.5 270.1 12.3
2002-11-18 13:14:22 51°9.131 2°37.142 247 0.5 280.8 12.4
2002-11-18 13:15:22 51°9.133 2°37.131 247.8 0.4 267.7 12.4
2002-11-18 13:16:22 51°9.136 2°37.122 245.2 0.4 310.5 12.4
2002-11-18 13:17:22 51°9.139 2°37.116 245.7 0.3 325.8 12.5
2002-11-18 13:18:22 51°9.144 2°37.112 247.3 0.3 351.6 12.5
2002-11-18 13:19:22 51°9.15 2°37.112 246.2 0.3 3 12.5
2002-11-18 13:20:22 51°9.158 2°37.113 244.5 0.5 6.5 12.6
2002-11-18 13:21:23 51°9.165 2°37.116 239.7 0.4 20.2 12.6
2002-11-18 13:22:23 51°9.172 2°37.119 233.7 0.4 18.7 12.7
2002-11-18 13:23:23 51°9.179 2°37.121 229.5 0.4 15.8 12.7
2002-11-18 13:24:23 51°9.185 2°37.125 225.3 0.4 28.8 12.8
2002-11-18 13:25:23 51°9.192 2°37.13 225.3 0.4 26.1 12.9
2002-11-18 13:26:23 51°9.199 2°37.135 226.7 0.5 34.6 12.9
2002-11-18 13:27:23 51°9.207 2°37.14 228.3 0.5 29.4 13
2002-11-18 13:28:23 51°9.213 2°37.146 230.8 0.4 31 13.1
2002-11-18 13:29:23 51°9.218 2°37.147 228.2 0.1 315 13.1
2002-11-18 13:30:23 51°9.216 2°37.142 216.5 0.4 228.8 13.1
2002-11-18 13:31:23 51°9.208 2°37.137 204.2 0.7 187.7 12.9
2002-11-18 13:32:23 51°9.194 2°37.136 197.8 0.9 183.8 12.7
2002-11-18 13:33:23 51°9.18 2°37.132 209 0.8 196.5 12.6
2002-11-18 13:34:23 51°9.168 2°37.128 201.3 0.7 190.6 12.5
2002-11-18 13:35:23 51°9.156 2°37.128 193.5 0.7 178.2 12.3
2002-11-18 13:36:23 51°9.144 2°37.13 192.8 0.7 168.7 12.1
2002-11-18 13:37:23 51°9.133 2°37.132 194.3 0.6 172 12
2002-11-18 13:38:23 51°9.124 2°37.133 197.7 0.4 179.2 11.9
2002-11-18 13:39:23 51°9.12 2°37.133 201.7 0.2 180.9 11.9
2002-11-18 13:40:23 51°9.119 2°37.133 211.5   113.9 11.9
2002-11-18 13:41:23 51°9.121 2°37.132 224.7 0.2 343.6 11.9
2002-11-18 13:42:23 51°9.126 2°37.13 239 0.3 348.9 11.9
2002-11-18 13:43:23 51°9.132 2°37.128 251.8 0.4 350.9 11.9
2002-11-18 13:44:23 51°9.139 2°37.126 261.8 0.4 350.8 12
2002-11-18 13:45:23 51°9.147 2°37.125 267.8 0.5 356.7 12.1
2002-11-18 13:46:23 51°9.155 2°37.125 269.3 0.5 3.5 12.1
2002-11-18 13:47:23 51°9.163 2°37.128 268.7 0.6 8.6 12.2
2002-11-18 13:48:23 51°9.172 2°37.131 268.3 0.6 14 12.2
2002-11-18 13:49:23 51°9.181 2°37.136 271 0.6 18.7 12.3
2002-11-18 13:50:23 51°9.189 2°37.141 274.8 0.6 25.2 12.4
2002-11-18 13:51:23 51°9.198 2°37.147 279 0.6 20.9 12.5
2002-11-18 13:52:23 51°9.207 2°37.143 267.8 0.9 295.5 12.6
2002-11-18 13:53:23 51°9.195 2°37.112 213.8 1.6 216.2 12.5
2002-11-18 13:54:23 51°9.176 2°37.1 198.7 1 197.8 12.3
2002-11-18 13:55:23 51°9.162 2°37.096 192.7 0.7 186.5 12.1
2002-11-18 13:56:23 51°9.151 2°37.094 193 0.6 184 12
2002-11-18 13:57:23 51°9.141 2°37.092 195 0.5 182.6 11.8
2002-11-18 13:58:23 51°9.134 2°37.089 199.8 0.4 193.2 11.7
2002-11-18 13:59:23 51°9.129 2°37.084 206.5 0.3 231.2 11.7
2002-11-18 14:00:23 51°9.13 2°37.08 217.5 0.3 346.7 11.7
2002-11-18 14:01:23 51°9.135 2°37.077 230.8 0.3 335.6 11.7
2002-11-18 14:02:23 51°9.141 2°37.072 239 0.5 334.6 11.8
2002-11-18 14:03:23 51°9.148 2°37.07 249.5 0.4 347.6 11.9
2002-11-18 14:04:23 51°9.154 2°37.066 257.2 0.4 334.8 12
2002-11-18 14:05:24 51°9.162 2°37.079 270.7 1.1 63.1 12
2002-11-18 14:06:23 51°9.168 2°37.103 280.5 0.9 70.8 12
2002-11-18 14:07:24 51°9.173 2°37.122 285.8 0.7 68.4 12
2002-11-18 14:08:23 51°9.175 2°37.146 291.3 0.9 84.6 11.9
2002-11-18 14:09:23 51°9.18 2°37.15 279.7 1.4 292.6 11.9
2002-11-18 14:10:24 51°9.229 2°37.063 352.8 6 345.4 12.8
2002-11-18 14:11:23 51°9.31 2°37.173 63.3 8.8 56.2 13.4
2002-11-18 14:12:23 51°9.43 2°37.451 61 13.9 54.8 13.4
2002-11-18 14:13:23 51°9.545 2°37.778 68.7 14.2 61.8 13.5
2002-11-18 14:14:23 51°9.644 2°38.119 74.2 14.2 67.6 13.4
2002-11-18 14:15:23 51°9.737 2°38.467 73.8 14.3 67.1 13.2
2002-11-18 14:16:24 51°9.83 2°38.821 74.5 14.3 67.8 12.9
2002-11-18 14:17:23 51°9.92 2°39.164 73.5 14.3 66.9 12.8
2002-11-18 14:18:23 51°10.011 2°39.512 73.5 14.3 67.1 12.6
2002-11-18 14:19:23 51°10.102 2°39.859 73.3 14.2 67 12.6
2002-11-18 14:20:23 51°10.193 2°40.206 73.8 14.2 67.7 12.6
2002-11-18 14:21:23 51°10.281 2°40.554 73.8 14.1 67.9 12.5
2002-11-18 14:22:24 51°10.371 2°40.907 74.5 14.1 68.4 12.5
2002-11-18 14:23:23 51°10.46 2°41.246 72.8 14.1 66.5 12.5
2002-11-18 14:24:23 51°10.55 2°41.59 73.7 14.1 67.3 12.5
2002-11-18 14:25:24 51°10.641 2°41.94 73.8 14 67.1 12.6
2002-11-18 14:26:23 51°10.73 2°42.278 73.8 14 67.3 12.6
2002-11-18 14:27:23 51°10.82 2°42.621 74.3 14.1 67.9 12.6
2002-11-18 14:28:23 51°10.911 2°42.969 74.2 14.2 67.5 12.8
2002-11-18 14:29:23 51°11.001 2°43.319 74.3 14.3 67.9 12.8
2002-11-18 14:30:23 51°11.091 2°43.67 73.5 14.3 67.3 12.9
2002-11-18 14:31:23 51°11.182 2°44.017 73.8 14.2 67.3 13
2002-11-18 14:32:23 51°11.273 2°44.363 74 14.1 67.5 13
2002-11-18 14:33:24 51°11.364 2°44.715 74.2 14.1 67.5 13
2002-11-18 14:34:24 51°11.454 2°45.062 73.8 14.2 67.3 13.1
2002-11-18 14:35:24 51°11.544 2°45.407 73.2 14.2 67 13.2
2002-11-18 14:36:24 51°11.634 2°45.753 74.3 14.2 67.8 13.2
2002-11-18 14:37:24 51°11.73 2°46.097 71.8 14.2 65.4 13.3
2002-11-18 14:38:24 51°11.828 2°46.44 72 14.2 65.4 13.3
2002-11-18 14:39:24 51°11.927 2°46.782 71.5 14.2 65.1 13.2
2002-11-18 14:40:24 51°12.027 2°47.122 70 14.2 63.7 13.2
2002-11-18 14:41:23 51°12.136 2°47.448 68.8 14.2 62.1 13.1
2002-11-18 14:42:23 51°12.246 2°47.78 68.5 14.2 62 13
2002-11-18 14:43:23 51°12.356 2°48.111 68.5 14.2 61.7 12.8
2002-11-18 14:44:23 51°12.464 2°48.447 70 14.2 63 12.8
2002-11-18 14:45:23 51°12.569 2°48.782 69.8 14.2 63.2 12.5
2002-11-18 14:46:23 51°12.677 2°49.116 69.2 14.2 62.7 12.3
2002-11-18 14:47:23 51°12.782 2°49.452 70.3 14.1 63.5 12.1
2002-11-18 14:48:23 51°12.888 2°49.788 69.8 14.2 63.4 12
2002-11-18 14:49:23 51°13.001 2°50.116 67.8 14.1 61 11.8
2002-11-18 14:50:23 51°13.114 2°50.443 67.5 14.1 61.3 11.7
2002-11-18 14:51:23 51°13.226 2°50.771 68 14 61.4 11.5
2002-11-18 14:52:23 51°13.339 2°51.097 67.7 14.1 61 11.5
2002-11-18 14:53:23 51°13.452 2°51.424 68.2 14.1 61.6 11.4
2002-11-18 14:54:23 51°13.564 2°51.75 67.8 14 61.3 11.1
2002-11-18 14:55:23 51°13.675 2°52.077 68 14 61.5 11
2002-11-18 14:56:23 51°13.786 2°52.404 67.7 14.1 61.6 11
2002-11-18 14:57:23 51°13.897 2°52.732 68.5 14 62.3 10.8
2002-11-18 14:58:23 51°14.008 2°53.058 67.5 14 61.5 10.4
2002-11-18 14:59:23 51°14.118 2°53.384 67.8 13.9 61.6 10
2002-11-18 15:00:23 51°14.226 2°53.705 68 13.4 61.8 9.8
2002-11-18 15:01:23 51°14.324 2°54.003 69.7 12.4 63.4 9.7
2002-11-18 15:02:23 51°14.396 2°54.305 83.2 12 76.5 9.8
2002-11-18 15:03:23 51°14.421 2°54.62 96.7 11.9 91 10.9
2002-11-18 15:04:23 51°14.39 2°54.931 109.5 11.8 105 10.6
2002-11-18 15:05:23 51°14.301 2°55.183 133.3 9.5 128.6 10.5
2002-11-18 15:06:23 51°14.218 2°55.324 145.3 6.3 139 10.6
2002-11-18 15:07:23 51°14.138 2°55.402 160.5 5.3 155.3 10.5
2002-11-18 15:08:23 51°14.063 2°55.455 160.7 4.9 155.2 9.8
2002-11-18 15:09:23 51°13.989 2°55.508 159.8 4.9 155 10
2002-11-18 15:10:23 51°13.915 2°55.563 159 4.9 154.3 10.4
2002-11-18 15:11:23 51°13.843 2°55.62 160 4.7 154.5 10.4
2002-11-18 15:12:23 51°13.782 2°55.675 150.7 3.9 145.4 10.2
2002-11-18 15:13:23 51°13.737 2°55.734 138 3.3 135.5 10.7
2002-11-18 15:14:23 51°13.706 2°55.797 131.2 2.9 126.4 11.1
2002-11-18 15:15:23 51°13.683 2°55.863 117.8 2.8 112.4 10
2002-11-18 15:16:23 51°13.671 2°55.924 107.2 1.8 100.6 7.4
2002-11-18 15:17:23 51°13.667 2°55.946 122.8 0.5 111.4 7.4
2002-11-18 15:18:23 51°13.666 2°55.95 136.5 0.1 126.6 7.4
2002-11-18 15:19:26 51°13.666 2°55.953 134 0.1 60.3 7.5
2002-11-18 15:20:28 51°13.668 2°55.954 133.7   24.4 -999